Time;durP1;ratioP1;P1;durP2;ratioP2;P2;SDS_P1;SDS_P2;PMS_P1;PMS_P2;Temp;Humidity;BMP_temperature;BMP_pressure;BME280_temperature;BME280_humidity;BME280_pressure;Samples;Min_cycle;Max_cycle;Signal;HPM_P1;HPM_P2
2023/08/29 00:01:40;;;;;;;13.05;11.50;;;;;11.30;93534.00;;;;7399535;19;20144;-77
2023/08/29 00:04:15;;;;;;;14.23;10.38;;;;;11.30;93542.00;;;;7401021;19;20251;-76
2023/08/29 00:06:43;;;;;;;16.05;11.88;;;;;11.30;93548.00;;;;7399775;19;20564;-76
2023/08/29 00:09:10;;;;;;;13.02;10.82;;;;;11.30;93546.00;;;;7400903;19;20149;-76
2023/08/29 00:11:45;;;;;;;12.77;11.48;;;;;11.40;93544.00;;;;7400889;19;20572;-76
2023/08/29 00:14:13;;;;;;;12.77;11.30;;;;;11.40;93548.00;;;;7400427;19;20616;-76
2023/08/29 00:16:42;;;;;;;14.13;10.63;;;;;11.30;93544.00;;;;7401338;19;20151;-77
2023/08/29 00:19:16;;;;;;;14.75;11.13;;;;;11.30;93544.00;;;;7399638;19;20220;-76
2023/08/29 00:21:44;;;;;;;15.07;10.60;;;;;11.30;93549.00;;;;7400894;19;20208;-79
2023/08/29 00:24:18;;;;;;;11.73;10.30;;;;;11.30;93546.00;;;;7400695;19;20144;-78
2023/08/29 00:26:46;;;;;;;13.65;11.25;;;;;11.40;93556.00;;;;7399156;19;20166;-78
2023/08/29 00:29:17;;;;;;;12.80;10.68;;;;;11.40;93547.00;;;;7400117;19;20156;-79
2023/08/29 00:31:52;;;;;;;14.30;10.77;;;;;11.30;93538.00;;;;7398911;19;20147;-77
2023/08/29 00:34:20;;;;;;;12.27;10.95;;;;;11.30;93533.00;;;;7397205;19;20587;-79
2023/08/29 00:37:02;;;;;;;15.55;10.90;;;;;11.30;93534.00;;;;7400560;19;20155;-78
2023/08/29 00:39:30;;;;;;;16.65;10.60;;;;;11.30;93528.00;;;;7400259;19;20132;-78
2023/08/29 00:42:05;;;;;;;12.77;10.75;;;;;11.30;93531.00;;;;7399844;19;20618;-78
2023/08/29 00:44:38;;;;;;;16.13;9.60;;;;;11.30;93538.00;;;;7401309;19;20200;-78
2023/08/29 00:47:08;;;;;;;15.00;10.68;;;;;11.40;93549.00;;;;7400475;19;20595;-77
2023/08/29 00:49:43;;;;;;;13.07;9.98;;;;;11.40;93553.00;;;;7398927;19;20498;-77
2023/08/29 00:52:18;;;;;;;13.48;10.18;;;;;11.30;93552.00;;;;7401676;19;20163;-78
2023/08/29 00:54:52;;;;;;;11.45;10.25;;;;;11.40;93543.00;;;;7401003;19;20137;-78
2023/08/29 00:57:20;;;;;;;13.13;10.13;;;;;11.40;93547.00;;;;7401902;19;20510;-78
2023/08/29 00:59:49;;;;;;;11.15;8.60;;;;;11.30;93549.00;;;;7399928;19;20141;-78
2023/08/29 01:02:36;;;;;;;11.15;9.45;;;;;11.30;93549.00;;;;7392533;19;20198;-80
2023/08/29 01:05:11;;;;;;;12.50;10.05;;;;;11.40;93549.00;;;;7400277;19;20212;-79
2023/08/29 01:07:39;;;;;;;12.77;10.18;;;;;11.40;93552.00;;;;7400082;19;20145;-79
2023/08/29 01:10:14;;;;;;;14.23;10.82;;;;;11.40;93549.00;;;;7400569;19;20136;-79
2023/08/29 01:12:57;;;;;;;11.30;10.10;;;;;11.40;93553.00;;;;7398666;19;20163;-79
2023/08/29 01:15:34;;;;;;;15.30;9.75;;;;;11.30;93551.00;;;;7401307;19;20132;-79
2023/08/29 01:18:05;;;;;;;12.70;10.52;;;;;11.40;93552.00;;;;7402108;19;20137;-79
2023/08/29 01:20:41;;;;;;;13.02;11.73;;;;;11.30;93550.00;;;;7397388;19;20172;-80
2023/08/29 01:23:29;;;;;;;14.52;10.65;;;;;11.20;93545.00;;;;7399970;19;20117;-80
2023/08/29 01:26:14;;;;;;;13.38;10.77;;;;;11.30;93555.00;;;;7399991;19;20514;-80
2023/08/29 01:28:45;;;;;;;14.95;10.77;;;;;11.40;93555.00;;;;7399295;19;20147;-79
2023/08/29 01:31:21;;;;;;;13.40;10.25;;;;;11.30;93549.00;;;;7397491;19;20215;-79
2023/08/29 01:33:52;;;;;;;11.10;9.77;;;;;11.20;93542.00;;;;7400907;19;20132;-79
2023/08/29 01:36:47;;;;;;;13.35;9.10;;;;;11.30;93538.00;;;;7399501;19;20155;-79
2023/08/29 01:39:15;;;;;;;10.50;9.45;;;;;11.20;93541.00;;;;7399686;19;20140;-80
2023/08/29 01:41:50;;;;;;;12.00;9.50;;;;;11.30;93547.00;;;;7397708;19;20750;-79
2023/08/29 01:44:18;;;;;;;13.23;9.70;;;;;11.30;93549.00;;;;7400048;19;20506;-80
2023/08/29 01:46:52;;;;;;;11.90;9.90;;;;;11.40;93549.00;;;;7398158;19;20623;-80
2023/08/29 01:49:19;;;;;;;11.50;10.32;;;;;11.40;93556.00;;;;7399510;19;20160;-80
2023/08/29 01:51:47;;;;;;;13.93;9.77;;;;;11.40;93545.00;;;;7400375;19;20140;-79
2023/08/29 01:54:22;;;;;;;13.50;11.52;;;;;11.30;93553.00;;;;7398453;19;20164;-80
2023/08/29 01:56:57;;;;;;;17.27;10.95;;;;;11.30;93551.00;;;;7399356;19;20210;-79
2023/08/29 01:59:27;;;;;;;13.90;11.75;;;;;11.40;93550.00;;;;7398419;19;20149;-80
2023/08/29 02:02:14;;;;;;;16.75;12.32;;;;;11.40;93548.00;;;;7397493;19;20159;-80
2023/08/29 02:04:49;;;;;;;15.70;13.05;;;;;11.50;93547.00;;;;7397265;19;20529;-79
2023/08/29 02:07:22;;;;;;;15.18;13.55;;;;;11.50;93550.00;;;;7398262;19;20157;-80
2023/08/29 02:09:57;;;;;;;19.17;13.20;;;;;11.40;93555.00;;;;7398242;19;20140;-77
2023/08/29 02:12:27;;;;;;;19.30;13.27;;;;;11.40;93543.00;;;;7396719;19;20141;-77
2023/08/29 02:15:02;;;;;;;14.98;13.43;;;;;11.40;93542.00;;;;7398161;19;20136;-77
2023/08/29 02:17:37;;;;;;;20.20;13.52;;;;;11.40;93534.00;;;;7396756;19;20144;-77
2023/08/29 02:20:06;;;;;;;15.77;13.98;;;;;11.40;93539.00;;;;7394817;19;20156;-78
2023/08/29 02:22:41;;;;;;;18.92;14.73;;;;;11.40;93537.00;;;;7398343;19;20139;-77
2023/08/29 02:25:09;;;;;;;22.05;13.63;;;;;11.40;93537.00;;;;7395502;19;20153;-79
2023/08/29 02:27:37;;;;;;;16.15;13.20;;;;;11.40;93532.00;;;;7395162;19;20158;-77
2023/08/29 02:30:11;;;;;;;17.42;14.32;;;;;11.40;93530.00;;;;7396630;19;20155;-77
2023/08/29 02:32:47;;;;;;;18.45;13.80;;;;;11.40;93526.00;;;;7395690;19;20575;-77
2023/08/29 02:35:15;;;;;;;16.48;14.07;;;;;11.30;93525.00;;;;7396933;19;20200;-78
2023/08/29 02:37:50;;;;;;;16.05;13.43;;;;;11.30;93525.00;;;;7397107;19;20137;-77
2023/08/29 02:40:25;;;;;;;17.38;14.20;;;;;11.30;93531.00;;;;7394105;19;20530;-77
2023/08/29 02:42:59;;;;;;;16.13;14.38;;;;;11.30;93521.00;;;;7394975;19;20153;-78
2023/08/29 02:45:32;;;;;;;17.88;14.50;;;;;11.30;93525.00;;;;7395529;19;20602;-77
2023/08/29 02:48:07;;;;;;;16.48;13.30;;;;;11.30;93525.00;;;;7395644;19;20147;-77
2023/08/29 02:50:42;;;;;;;17.83;13.02;;;;;11.20;93519.00;;;;7402336;19;20162;-77
2023/08/29 02:53:21;;;;;;;13.30;11.73;;;;;11.40;93521.00;;;;7403482;19;20148;-77
2023/08/29 02:55:56;;;;;;;18.13;13.00;;;;;11.30;93528.00;;;;7402249;19;20140;-78
2023/08/29 02:58:31;;;;;;;16.02;13.60;;;;;11.40;93520.00;;;;7401105;19;20148;-77
2023/08/29 03:00:59;;;;;;;20.85;14.48;;;;;11.30;93510.00;;;;7401352;19;20152;-78
2023/08/29 03:03:40;;;;;;;16.40;14.20;;;;;11.40;93511.00;;;;7399353;19;20629;-77
2023/08/29 03:06:07;;;;;;;17.15;13.80;;;;;11.30;93512.00;;;;7401259;19;20140;-78
2023/08/29 03:08:42;;;;;;;18.05;14.50;;;;;11.40;93510.00;;;;7403051;19;20152;-77
2023/08/29 03:11:16;;;;;;;15.48;12.65;;;;;11.30;93504.00;;;;7402904;19;20587;-77
2023/08/29 03:13:50;;;;;;;18.85;14.50;;;;;11.30;93510.00;;;;7401952;19;20160;-78
2023/08/29 03:16:19;;;;;;;17.85;12.77;;;;;11.40;93511.00;;;;7402334;19;20149;-77
2023/08/29 03:18:53;;;;;;;13.90;12.20;;;;;11.40;93511.00;;;;7402902;19;20460;-77
2023/08/29 03:21:21;;;;;;;19.35;13.57;;;;;11.40;93499.00;;;;7400385;19;20710;-77
2023/08/29 03:23:49;;;;;;;15.98;13.80;;;;;11.40;93510.00;;;;7401974;19;20200;-77
2023/08/29 03:26:23;;;;;;;19.38;15.23;;;;;11.40;93501.00;;;;7402801;19;20139;-77
2023/08/29 03:28:57;;;;;;;25.30;15.07;;;;;11.40;93508.00;;;;7402979;19;20157;-78
2023/08/29 03:31:31;;;;;;;16.88;15.10;;;;;11.30;93496.00;;;;7401190;19;20144;-77
2023/08/29 03:34:05;;;;;;;21.90;16.42;;;;;11.30;93500.00;;;;7402341;19;20615;-77
2023/08/29 03:36:41;;;;;;;19.58;17.33;;;;;11.20;93492.00;;;;7402882;19;20152;-78
2023/08/29 03:39:08;;;;;;;22.73;16.60;;;;;11.30;93495.00;;;;7402621;19;20133;-77
2023/08/29 03:41:42;;;;;;;28.08;21.23;;;;;11.20;93505.00;;;;7400699;19;20503;-78
2023/08/29 03:44:11;;;;;;;22.13;19.35;;;;;11.30;93500.00;;;;7402203;19;20121;-78
2023/08/29 03:46:46;;;;;;;25.60;20.17;;;;;11.30;93500.00;;;;7402612;19;20454;-78
2023/08/29 03:49:14;;;;;;;24.90;19.63;;;;;11.20;93499.00;;;;7399627;19;20144;-77
2023/08/29 03:51:48;;;;;;;24.10;19.42;;;;;11.30;93499.00;;;;7402083;19;20611;-77
2023/08/29 03:54:22;;;;;;;26.35;19.52;;;;;11.20;93501.00;;;;7402344;19;20133;-78
2023/08/29 03:56:50;;;;;;;23.58;20.33;;;;;11.30;93499.00;;;;7400064;19;20152;-78
2023/08/29 03:59:24;;;;;;;21.42;18.98;;;;;11.20;93491.00;;;;7400509;19;20618;-77
2023/08/29 04:01:51;;;;;;;23.92;19.20;;;;;11.20;93492.00;;;;7398855;19;20608;-77
2023/08/29 04:04:33;;;;;;;28.58;20.00;;;;;11.20;93497.00;;;;7397768;19;20183;-77
2023/08/29 04:07:04;;;;;;;23.60;19.30;;;;;11.20;93495.00;;;;7401073;19;20543;-76
2023/08/29 04:09:39;;;;;;;23.67;19.02;;;;;11.10;93494.00;;;;7398670;19;20148;-78
2023/08/29 04:12:16;;;;;;;24.23;19.80;;;;;11.10;93488.00;;;;7399381;19;20159;-77
2023/08/29 04:14:44;;;;;;;26.30;20.50;;;;;11.20;93497.00;;;;7400273;19;20172;-77
2023/08/29 04:17:19;;;;;;;23.80;19.90;;;;;11.30;93495.00;;;;7401497;19;20136;-77
2023/08/29 04:19:47;;;;;;;23.48;19.88;;;;;11.20;93485.00;;;;7399757;19;20151;-78
2023/08/29 04:22:23;;;;;;;26.60;21.20;;;;;11.10;93494.00;;;;7400355;19;20148;-77
2023/08/29 04:24:57;;;;;;;26.33;20.85;;;;;11.20;93490.00;;;;7401279;19;20136;-77
2023/08/29 04:27:34;;;;;;;24.38;18.77;;;;;11.20;93494.00;;;;7399859;19;20155;-78
2023/08/29 04:30:08;;;;;;;25.13;19.88;;;;;11.20;93495.00;;;;7401859;19;20145;-78
2023/08/29 04:32:37;;;;;;;26.00;19.80;;;;;11.30;93494.00;;;;7402717;19;20452;-79
2023/08/29 04:35:10;;;;;;;28.40;20.08;;;;;11.20;93495.00;;;;7400646;19;20149;-79
2023/08/29 04:37:50;;;;;;;27.83;20.02;;;;;11.20;93491.00;;;;7402853;19;20129;-79
2023/08/29 04:40:25;;;;;;;28.75;21.67;;;;;11.20;93499.00;;;;7400945;19;20436;-79
2023/08/29 04:42:59;;;;;;;33.75;21.48;;;;;11.10;93489.00;;;;7399080;19;20608;-79
2023/08/29 04:45:33;;;;;;;26.90;22.08;;;;;11.10;93496.00;;;;7401067;19;20177;-79
2023/08/29 04:48:00;;;;;;;25.85;21.15;;;;;11.20;93497.00;;;;7401211;19;20575;-79
2023/08/29 04:50:35;;;;;;;28.92;22.27;;;;;11.20;93493.00;;;;7399070;19;20159;-79
2023/08/29 04:53:10;;;;;;;28.48;20.70;;;;;11.20;93493.00;;;;7401995;19;20138;-79
2023/08/29 04:55:45;;;;;;;25.48;20.58;;;;;11.00;93487.00;;;;7398991;19;20482;-80
2023/08/29 04:58:12;;;;;;;24.58;19.23;;;;;11.10;93496.00;;;;7399008;19;20157;-78
2023/08/29 05:00:49;;;;;;;32.40;21.95;;;;;11.10;93497.00;;;;7399161;19;20167;-78
2023/08/29 05:03:30;;;;;;;28.20;21.17;;;;;11.20;93488.00;;;;7397690;19;20540;-79
2023/08/29 05:06:05;;;;;;;26.20;21.75;;;;;11.30;93481.00;;;;7399704;19;20623;-79
2023/08/29 05:08:36;;;;;;;24.67;21.27;;;;;11.30;93491.00;;;;7400165;19;20153;-79
2023/08/29 05:11:10;;;;;;;24.95;20.13;;;;;11.20;93485.00;;;;7387894;19;20140;-79
2023/08/29 05:13:40;;;;;;;27.10;20.55;;;;;11.20;93485.00;;;;7370871;19;20200;-79
2023/08/29 05:16:16;;;;;;;26.58;21.70;;;;;11.20;93492.00;;;;7389660;19;21408;-79
2023/08/29 05:18:50;;;;;;;26.92;21.80;;;;;11.20;93484.00;;;;7389010;19;20127;-79
2023/08/29 05:21:25;;;;;;;30.15;20.08;;;;;11.30;93487.00;;;;7387384;19;20595;-79
2023/08/29 05:24:00;;;;;;;24.55;21.23;;;;;11.30;93489.00;;;;7387449;19;20169;-79
2023/08/29 05:26:34;;;;;;;24.35;19.77;;;;;11.30;93491.00;;;;7389770;19;20137;-79
2023/08/29 05:29:08;;;;;;;22.60;18.30;;;;;11.30;93480.00;;;;7389751;19;20153;-80
2023/08/29 05:31:42;;;;;;;24.27;17.92;;;;;11.40;93476.00;;;;7387007;19;20156;-79
2023/08/29 05:34:10;;;;;;;23.85;18.50;;;;;11.40;93476.00;;;;7389692;19;20161;-79
2023/08/29 05:36:48;;;;;;;20.65;18.10;;;;;11.30;93485.00;;;;7389360;19;20128;-79
2023/08/29 05:39:16;;;;;;;22.33;17.77;;;;;11.40;93489.00;;;;7388477;19;20137;-79
2023/08/29 05:41:46;;;;;;;19.48;16.95;;;;;11.30;93487.00;;;;7386837;19;20201;-83
2023/08/29 05:44:20;;;;;;;18.02;16.10;;;;;11.40;93478.00;;;;7387163;19;20632;-82
2023/08/29 05:46:48;;;;;;;20.17;16.45;;;;;11.40;93491.00;;;;7388564;19;20500;-82
2023/08/29 05:49:23;;;;;;;19.00;15.90;;;;;11.50;93488.00;;;;7388852;19;20160;-80
2023/08/29 05:51:57;;;;;;;19.10;15.75;;;;;11.40;93490.00;;;;7390057;19;20125;-84
2023/08/29 05:54:31;;;;;;;17.58;15.02;;;;;11.40;93483.00;;;;7388460;19;20131;-85
2023/08/29 05:57:05;;;;;;;22.77;17.00;;;;;11.40;93496.00;;;;7389561;19;20644;-83
2023/08/29 05:59:34;;;;;;;20.60;16.38;;;;;11.40;93486.00;;;;7389750;19;20180;-83
2023/08/29 06:02:08;;;;;;;17.65;14.70;;;;;11.40;93496.00;;;;7389484;19;20651;-83
2023/08/29 06:04:50;;;;;;;15.85;13.73;;;;;11.70;93489.00;;;;7388714;19;20160;-82
2023/08/29 06:07:24;;;;;;;16.83;14.48;;;;;11.70;93486.00;;;;7389128;19;20471;-85
2023/08/29 06:09:59;;;;;;;17.88;13.25;;;;;11.60;93491.00;;;;7390658;19;20128;-82
2023/08/29 06:12:34;;;;;;;14.27;12.73;;;;;11.80;93482.00;;;;7389335;19;20593;-82
2023/08/29 06:15:10;;;;;;;16.77;14.75;;;;;11.70;93492.00;;;;7389642;19;20143;-82
2023/08/29 06:17:51;;;;;;;16.60;14.57;;;;;11.80;93503.00;;;;7388367;19;20155;-82
2023/08/29 06:20:25;;;;;;;16.17;13.45;;;;;11.80;93494.00;;;;7389929;19;20244;-84
2023/08/29 06:23:03;;;;;;;17.05;14.82;;;;;11.70;93491.00;;;;7386668;19;20169;-86
2023/08/29 06:25:37;;;;;;;18.05;13.65;;;;;11.80;93501.00;;;;7385845;19;20136;-83
2023/08/29 06:28:11;;;;;;;16.90;13.10;;;;;11.90;93493.00;;;;7384868;19;20595;-80
2023/08/29 06:30:45;;;;;;;17.58;14.07;;;;;11.70;93494.00;;;;7385595;19;20182;-81
2023/08/29 06:33:13;;;;;;;14.65;13.05;;;;;11.70;93500.00;;;;7385942;19;20133;-83
2023/08/29 06:36:03;;;;;;;14.73;13.27;;;;;11.60;93504.00;;;;7384924;19;20144;-79
2023/08/29 06:38:44;;;;;;;14.48;12.75;;;;;11.70;93502.00;;;;7382595;19;20200;-79
2023/08/29 06:41:22;;;;;;;15.10;12.73;;;;;11.60;93516.00;;;;7383760;19;20232;-83
2023/08/29 06:43:59;;;;;;;13.70;12.40;;;;;11.60;93528.00;;;;7387518;19;20139;-82
2023/08/29 06:46:27;;;;;;;14.65;12.63;;;;;11.60;93524.00;;;;7389329;19;20128;-84
2023/08/29 06:49:02;;;;;;;14.90;12.98;;;;;11.60;93531.00;;;;7386520;19;20653;-81
2023/08/29 06:51:38;;;;;;;13.00;11.52;;;;;11.70;93533.00;;;;7386506;19;20141;-83
2023/08/29 06:54:12;;;;;;;13.10;11.80;;;;;11.70;93531.00;;;;7387879;19;20147;-82
2023/08/29 06:56:49;;;;;;;17.10;12.95;;;;;11.80;93534.00;;;;7382364;19;20622;-79
2023/08/29 06:59:17;;;;;;;15.80;13.15;;;;;11.90;93528.00;;;;7383253;19;20125;-83
2023/08/29 07:01:52;;;;;;;13.70;12.02;;;;;12.00;93528.00;;;;7383868;19;20166;-79
2023/08/29 07:04:27;;;;;;;14.98;13.45;;;;;11.90;93531.00;;;;7382208;19;20221;-81
2023/08/29 07:07:12;;;;;;;14.48;12.98;;;;;12.00;93528.00;;;;7380723;19;20128;-82
2023/08/29 07:09:46;;;;;;;16.67;14.95;;;;;12.00;93528.00;;;;7381667;19;20156;-79
2023/08/29 07:12:20;;;;;;;16.00;13.55;;;;;12.10;93523.00;;;;7382518;19;20145;-80
2023/08/29 07:14:55;;;;;;;16.55;14.73;;;;;12.30;93528.00;;;;7381110;19;20137;-82
2023/08/29 07:17:23;;;;;;;15.93;14.30;;;;;12.20;93530.00;;;;7382800;19;20138;-80
2023/08/29 07:19:51;;;;;;;15.52;13.05;;;;;12.10;93527.00;;;;7382367;19;20229;-81
2023/08/29 07:22:25;;;;;;;14.50;12.98;;;;;12.40;93526.00;;;;7382729;19;20491;-80
2023/08/29 07:24:53;;;;;;;13.85;12.55;;;;;12.80;93535.00;;;;7382863;19;20146;-81
2023/08/29 07:27:27;;;;;;;15.15;13.05;;;;;12.60;93538.00;;;;7380958;19;20152;-82
2023/08/29 07:29:55;;;;;;;15.60;12.73;;;;;12.60;93537.00;;;;7379173;19;20140;-81
2023/08/29 07:32:31;;;;;;;13.57;12.18;;;;;12.60;93535.00;;;;7383069;19;20125;-80
2023/08/29 07:35:07;;;;;;;13.70;12.30;;;;;12.70;93534.00;;;;7384740;19;20144;-82
2023/08/29 07:37:35;;;;;;;14.70;12.60;;;;;12.70;93537.00;;;;7387187;19;20143;-79
2023/08/29 07:40:09;;;;;;;14.00;12.60;;;;;12.80;93535.00;;;;7387199;19;20244;-80
2023/08/29 07:42:44;;;;;;;12.88;11.57;;;;;12.80;93541.00;;;;7391083;19;20639;-83
2023/08/29 07:45:11;;;;;;;12.55;11.35;;;;;12.80;93543.00;;;;7392575;19;20616;-80
2023/08/29 07:47:45;;;;;;;13.50;11.43;;;;;13.00;93553.00;;;;7390070;19;20144;-82
2023/08/29 07:50:22;;;;;;;12.07;10.77;;;;;13.10;93546.00;;;;7390186;19;20148;-80
2023/08/29 07:52:50;;;;;;;11.93;10.73;;;;;13.00;93551.00;;;;7391218;19;20152;-84
2023/08/29 07:55:24;;;;;;;10.90;9.50;;;;;13.20;93547.00;;;;7393082;19;20176;-83
2023/08/29 07:58:10;;;;;;;9.73;8.82;;;;;13.10;93548.00;;;;7393553;19;20168;-82
2023/08/29 08:00:48;;;;;;;10.23;9.30;;;;;13.10;93548.00;;;;7386643;19;20148;-77
2023/08/29 08:03:23;;;;;;;10.77;8.90;;;;;13.10;93549.00;;;;7386566;19;20194;-76
2023/08/29 08:06:06;;;;;;;9.48;8.57;;;;;13.00;93551.00;;;;7382372;19;20726;-76
2023/08/29 08:08:42;;;;;;;9.63;8.60;;;;;13.30;93559.00;;;;7387667;19;20132;-77
2023/08/29 08:11:16;;;;;;;9.52;8.65;;;;;13.60;93557.00;;;;7389720;19;20143;-77
2023/08/29 08:13:44;;;;;;;10.93;8.88;;;;;13.40;93562.00;;;;7388486;19;20129;-77
2023/08/29 08:16:25;;;;;;;9.32;8.40;;;;;13.10;93560.00;;;;7385569;19;20147;-78
2023/08/29 08:19:00;;;;;;;9.68;8.68;;;;;13.30;93566.00;;;;7389981;19;20542;-79
2023/08/29 08:21:41;;;;;;;10.73;9.63;;;;;13.00;93563.00;;;;7391046;19;20176;-78
2023/08/29 08:24:17;;;;;;;10.18;9.23;;;;;12.90;93566.00;;;;7386794;19;20145;-77
2023/08/29 08:26:46;;;;;;;12.55;9.20;;;;;13.10;93567.00;;;;7385973;19;20145;-75
2023/08/29 08:29:21;;;;;;;11.68;9.25;;;;;13.20;93558.00;;;;7385894;19;20639;-75
2023/08/29 08:31:48;;;;;;;10.20;9.18;;;;;13.40;93571.00;;;;7387352;19;20474;-74
2023/08/29 08:34:23;;;;;;;11.15;9.35;;;;;13.60;93564.00;;;;7385864;19;20176;-75
2023/08/29 08:36:51;;;;;;;9.88;8.65;;;;;13.80;93572.00;;;;7384683;19;20592;-76
2023/08/29 08:39:42;;;;;;;10.30;9.30;;;;;13.70;93570.00;;;;7387728;19;20133;-75
2023/08/29 08:42:11;;;;;;;10.95;9.82;;;;;13.40;93582.00;;;;7385500;19;20471;-76
2023/08/29 08:44:48;;;;;;;10.15;9.20;;;;;13.40;93585.00;;;;7379403;19;20136;-78
2023/08/29 08:47:16;;;;;;;13.07;10.55;;;;;13.50;93585.00;;;;7383135;19;20145;-75
2023/08/29 08:49:50;;;;;;;12.77;11.50;;;;;13.30;93574.00;;;;7383220;19;20142;-75
2023/08/29 08:52:17;;;;;;;12.55;11.35;;;;;13.40;93582.00;;;;7380619;19;20156;-76
2023/08/29 08:54:52;;;;;;;14.10;11.00;;;;;13.50;93580.00;;;;7382949;19;20124;-76
2023/08/29 08:57:26;;;;;;;12.68;11.38;;;;;13.30;93578.00;;;;7383259;19;20136;-76
2023/08/29 09:00:07;;;;;;;12.43;11.23;;;;;13.50;93582.00;;;;7383387;19;20154;-76
2023/08/29 09:02:50;;;;;;;12.75;11.50;;;;;13.50;93593.00;;;;7383000;19;20239;-76
2023/08/29 09:05:31;;;;;;;13.10;11.82;;;;;13.80;93586.00;;;;7385686;19;20262;-78
2023/08/29 09:08:06;;;;;;;13.30;11.90;;;;;13.70;93577.00;;;;7384688;19;20579;-76
2023/08/29 09:10:41;;;;;;;12.63;11.52;;;;;13.90;93574.00;;;;7386308;19;20121;-79
2023/08/29 09:13:16;;;;;;;12.30;11.10;;;;;14.00;93578.00;;;;7388254;19;20147;-82
2023/08/29 09:15:49;;;;;;;12.00;10.75;;;;;14.10;93575.00;;;;7385946;19;20160;-80
2023/08/29 09:18:25;;;;;;;11.65;10.45;;;;;14.00;93576.00;;;;7386506;19;20208;-77
2023/08/29 09:21:00;;;;;;;10.57;9.57;;;;;14.40;93582.00;;;;7388028;19;20212;-80
2023/08/29 09:23:35;;;;;;;13.45;10.25;;;;;14.20;93589.00;;;;7390842;19;20513;-83
2023/08/29 09:26:14;;;;;;;10.98;9.98;;;;;14.50;93591.00;;;;7388514;19;20655;-81
2023/08/29 09:28:43;;;;;;;11.55;10.52;;;;;14.60;93586.00;;;;7389463;19;20145;-82
2023/08/29 09:31:17;;;;;;;10.00;8.98;;;;;14.40;93591.00;;;;7389940;19;20149;-80
2023/08/29 09:33:49;;;;;;;9.75;8.73;;;;;14.60;93591.00;;;;7390552;19;20229;-83
2023/08/29 09:36:23;;;;;;;10.18;9.05;;;;;14.30;93569.00;;;;7392932;19;20571;-81
2023/08/29 09:38:51;;;;;;;9.52;8.60;;;;;14.00;93583.00;;;;7389418;19;20121;-81
2023/08/29 09:41:25;;;;;;;9.93;8.48;;;;;14.20;93594.00;;;;7388402;19;20140;-83
2023/08/29 09:43:53;;;;;;;8.90;7.53;;;;;14.30;93588.00;;;;7390224;19;20164;-83
2023/08/29 09:46:30;;;;;;;9.98;8.18;;;;;14.60;93578.00;;;;7383174;19;20472;-81
2023/08/29 09:48:59;;;;;;;9.13;8.32;;;;;15.10;93584.00;;;;7384369;19;20571;-83
2023/08/29 09:51:40;;;;;;;10.23;8.93;;;;;14.60;93583.00;;;;7384190;19;20144;-83
2023/08/29 09:54:12;;;;;;;9.18;8.38;;;;;14.90;93583.00;;;;7387519;19;21184;-82
2023/08/29 09:56:52;;;;;;;8.93;7.82;;;;;14.40;93588.00;;;;7386210;19;20156;-80
2023/08/29 09:59:22;;;;;;;8.65;7.80;;;;;14.70;93582.00;;;;7387847;19;20976;-84
2023/08/29 10:01:57;;;;;;;8.65;7.55;;;;;14.50;93594.00;;;;7387280;19;20631;-81
2023/08/29 10:04:32;;;;;;;10.48;7.40;;;;;14.50;93590.00;;;;7389669;19;20187;-81
2023/08/29 10:07:24;;;;;;;9.07;8.23;;;;;14.40;93597.00;;;;7387575;19;20883;-78
2023/08/29 10:09:53;;;;;;;11.13;7.35;;;;;14.30;93600.00;;;;7387609;19;20149;-83
2023/08/29 10:12:28;;;;;;;8.85;8.00;;;;;14.50;93599.00;;;;7387758;19;20149;-81
2023/08/29 10:14:56;;;;;;;11.73;9.05;;;;;14.60;93605.00;;;;7391450;19;20152;-84
2023/08/29 10:17:34;;;;;;;10.45;9.27;;;;;14.70;93591.00;;;;7388279;19;20519;-82
2023/08/29 10:20:08;;;;;;;10.63;9.52;;;;;15.10;93589.00;;;;7392112;19;20125;-84
2023/08/29 10:22:48;;;;;;;12.25;11.05;;;;;15.40;93585.00;;;;7386150;19;20502;-75
2023/08/29 10:25:20;;;;;;;11.30;10.07;;;;;15.70;93593.00;;;;7386710;19;20133;-75
2023/08/29 10:27:55;;;;;;;10.13;9.23;;;;;15.80;93584.00;;;;7384213;19;20132;-75
2023/08/29 10:30:25;;;;;;;10.50;8.75;;;;;15.70;93593.00;;;;7385713;19;20572;-75
2023/08/29 10:33:04;;;;;;;10.43;9.38;;;;;15.80;93601.00;;;;7385496;19;20140;-76
2023/08/29 10:35:46;;;;;;;9.50;8.60;;;;;15.80;93606.00;;;;7381450;19;20132;-75
2023/08/29 10:38:20;;;;;;;8.70;7.97;;;;;15.50;93598.00;;;;7383302;19;20598;-76
2023/08/29 10:41:09;;;;;;;8.40;7.50;;;;;15.40;93592.00;;;;7385886;19;20129;-77
2023/08/29 10:43:44;;;;;;;7.88;7.13;;;;;15.60;93598.00;;;;7385195;19;20476;-75
2023/08/29 10:46:20;;;;;;;7.43;6.72;;;;;15.60;93597.00;;;;7384674;19;20155;-74
2023/08/29 10:48:48;;;;;;;7.03;6.40;;;;;15.60;93599.00;;;;7382497;19;20155;-77
2023/08/29 10:51:19;;;;;;;7.22;6.53;;;;;15.80;93590.00;;;;7384931;19;20148;-75
2023/08/29 10:54:05;;;;;;;6.85;6.18;;;;;15.90;93577.00;;;;7386053;19;20200;-75
2023/08/29 10:56:43;;;;;;;6.68;6.07;;;;;15.80;93578.00;;;;7384334;19;20133;-76
2023/08/29 10:59:34;;;;;;;7.82;6.80;;;;;16.30;93574.00;;;;7383420;19;20169;-75
2023/08/29 11:02:41;;;;;;;8.25;6.20;;;;;16.50;93576.00;;;;7380085;19;20179;-76
2023/08/29 11:05:22;;;;;;;6.78;6.18;;;;;17.00;93562.00;;;;7379790;19;20624;-75
2023/08/29 11:08:23;;;;;;;7.70;6.90;;;;;16.90;93570.00;;;;7381696;19;20589;-76
2023/08/29 11:11:12;;;;;;;7.32;6.60;;;;;16.70;93556.00;;;;7387993;19;20612;-76
2023/08/29 11:14:06;;;;;;;6.90;6.40;;;;;16.80;93565.00;;;;7387254;19;20616;-76
2023/08/29 11:17:11;;;;;;;9.10;7.18;;;;;15.90;93567.00;;;;7387354;19;20498;-76
2023/08/29 11:19:41;;;;;;;7.10;5.90;;;;;16.10;93575.00;;;;7389673;19;20151;-76
2023/08/29 11:22:19;;;;;;;8.52;6.45;;;;;15.30;93577.00;;;;7374620;19;20128;-75
2023/08/29 11:24:51;;;;;;;6.63;6.03;;;;;15.60;93577.00;;;;7387206;19;20139;-76
2023/08/29 11:27:36;;;;;;;11.05;7.35;;;;;15.60;93578.00;;;;7388160;19;20628;-75
2023/08/29 11:30:09;;;;;;;8.02;6.82;;;;;15.40;93579.00;;;;7389258;19;20208;-77
2023/08/29 11:32:57;;;;;;;7.10;6.47;;;;;14.90;93579.00;;;;7386725;19;20141;-76
2023/08/29 11:35:28;;;;;;;7.18;6.57;;;;;15.20;93579.00;;;;7387090;19;20655;-76
2023/08/29 11:38:04;;;;;;;8.35;6.57;;;;;15.20;93566.00;;;;7384474;19;20136;-77
2023/08/29 11:40:36;;;;;;;7.57;6.80;;;;;15.10;93564.00;;;;7386952;19;20148;-76
2023/08/29 11:43:34;;;;;;;7.10;6.50;;;;;15.30;93562.00;;;;7387963;19;20156;-77
2023/08/29 11:46:22;;;;;;;7.25;6.32;;;;;15.40;93559.00;;;;7389406;19;20125;-79
2023/08/29 11:48:56;;;;;;;7.90;7.20;;;;;15.30;93557.00;;;;7387675;19;20137;-77
2023/08/29 11:51:32;;;;;;;6.93;6.28;;;;;15.70;93565.00;;;;7388271;19;20140;-77
2023/08/29 11:54:40;;;;;;;6.07;5.00;;;;;15.20;93568.00;;;;7386522;19;20156;-78
2023/08/29 11:57:17;;;;;;;8.23;5.72;;;;;15.30;93570.00;;;;7387147;19;20174;-78
2023/08/29 11:59:46;;;;;;;6.57;5.80;;;;;15.70;93560.00;;;;7390956;19;20201;-79
2023/08/29 12:02:22;;;;;;;7.70;5.82;;;;;15.90;93572.00;;;;7385410;19;20172;-75
2023/08/29 12:04:57;;;;;;;6.45;5.85;;;;;16.00;93575.00;;;;7387645;19;20163;-76
2023/08/29 12:07:41;;;;;;;5.60;5.00;;;;;16.10;93579.00;;;;7386412;19;20152;-76
2023/08/29 12:10:14;;;;;;;5.97;5.35;;;;;16.30;93577.00;;;;7386809;19;20152;-77
2023/08/29 12:12:49;;;;;;;5.30;4.68;;;;;16.20;93583.00;;;;7390928;19;20515;-76
2023/08/29 12:15:33;;;;;;;5.82;4.43;;;;;16.20;93579.00;;;;7380865;19;20172;-76
2023/08/29 12:18:21;;;;;;;6.20;5.60;;;;;16.10;93593.00;;;;7390058;19;20242;-78
2023/08/29 12:20:49;;;;;;;6.13;5.53;;;;;16.00;93590.00;;;;7388973;19;20641;-77
2023/08/29 12:23:27;;;;;;;4.78;4.38;;;;;16.00;93588.00;;;;7391296;19;20188;-78
2023/08/29 12:26:01;;;;;;;5.30;4.80;;;;;16.30;93593.00;;;;7387428;19;20538;-78
2023/08/29 12:28:31;;;;;;;7.75;4.95;;;;;16.40;93594.00;;;;7388068;19;20163;-78
2023/08/29 12:31:06;;;;;;;6.75;5.07;;;;;15.80;93592.00;;;;7390175;19;20133;-76
2023/08/29 12:33:44;;;;;;;5.63;4.75;;;;;16.20;93580.00;;;;7390278;19;20132;-78
2023/08/29 12:36:11;;;;;;;5.07;4.68;;;;;16.10;93588.00;;;;7387585;19;20129;-77
2023/08/29 12:38:46;;;;;;;6.47;5.75;;;;;16.40;93589.00;;;;7388059;19;20133;-76
2023/08/29 12:41:21;;;;;;;5.43;4.80;;;;;16.40;93581.00;;;;7387303;19;20157;-84